sensor_id;sensor_type;location;lat;lon;timestamp;pressure;altitude;pressure_sealevel;temperature;humidity
79465;BME280;68932;47.410;8.232;2023-07-30T00:00:48;96665.01;;;18.18;81.27
79465;BME280;68932;47.410;8.232;2023-07-30T00:03:16;96671.38;;;18.18;81.49
79465;BME280;68932;47.410;8.232;2023-07-30T00:05:53;96672.48;;;18.18;81.51
79465;BME280;68932;47.410;8.232;2023-07-30T00:08:21;96674.71;;;18.19;81.66
79465;BME280;68932;47.410;8.232;2023-07-30T00:10:50;96672.16;;;18.19;81.70
79465;BME280;68932;47.410;8.232;2023-07-30T00:13:18;96666.88;;;18.21;81.99
79465;BME280;68932;47.410;8.232;2023-07-30T00:15:48;96670.65;;;18.22;82.09
79465;BME280;68932;47.410;8.232;2023-07-30T00:18:17;96660.55;;;18.23;82.10
79465;BME280;68932;47.410;8.232;2023-07-30T00:20:45;96660.38;;;18.25;82.15
79465;BME280;68932;47.410;8.232;2023-07-30T00:23:13;96662.89;;;18.26;82.13
79465;BME280;68932;47.410;8.232;2023-07-30T00:25:42;96657.80;;;18.26;82.03
79465;BME280;68932;47.410;8.232;2023-07-30T00:28:10;96657.53;;;18.25;82.19
79465;BME280;68932;47.410;8.232;2023-07-30T00:30:38;96663.52;;;18.24;82.19
79465;BME280;68932;47.410;8.232;2023-07-30T00:33:07;96664.98;;;18.24;82.11
79465;BME280;68932;47.410;8.232;2023-07-30T00:35:35;96661.85;;;18.23;82.24
79465;BME280;68932;47.410;8.232;2023-07-30T00:38:04;96667.25;;;18.22;82.30
79465;BME280;68932;47.410;8.232;2023-07-30T00:40:32;96673.84;;;18.22;82.41
79465;BME280;68932;47.410;8.232;2023-07-30T00:43:00;96675.04;;;18.21;82.33
79465;BME280;68932;47.410;8.232;2023-07-30T00:45:29;96671.34;;;18.20;82.38
79465;BME280;68932;47.410;8.232;2023-07-30T00:47:57;96670.70;;;18.20;82.32
79465;BME280;68932;47.410;8.232;2023-07-30T00:50:26;96674.19;;;18.18;82.29
79465;BME280;68932;47.410;8.232;2023-07-30T00:52:54;96684.43;;;18.17;82.54
79465;BME280;68932;47.410;8.232;2023-07-30T00:55:22;96687.52;;;18.16;82.55
79465;BME280;68932;47.410;8.232;2023-07-30T00:57:51;96684.23;;;18.15;82.60
79465;BME280;68932;47.410;8.232;2023-07-30T01:00:20;96685.52;;;18.15;82.51
79465;BME280;68932;47.410;8.232;2023-07-30T01:02:49;96689.07;;;18.15;82.59
79465;BME280;68932;47.410;8.232;2023-07-30T01:05:17;96688.29;;;18.14;82.59
79465;BME280;68932;47.410;8.232;2023-07-30T01:07:45;96686.20;;;18.12;82.70
79465;BME280;68932;47.410;8.232;2023-07-30T01:10:14;96682.80;;;18.10;82.80
79465;BME280;68932;47.410;8.232;2023-07-30T01:12:43;96680.10;;;18.11;82.71
79465;BME280;68932;47.410;8.232;2023-07-30T01:15:13;96678.46;;;18.11;82.76
79465;BME280;68932;47.410;8.232;2023-07-30T01:17:42;96678.56;;;18.12;82.70
79465;BME280;68932;47.410;8.232;2023-07-30T01:20:11;96680.64;;;18.13;82.75
79465;BME280;68932;47.410;8.232;2023-07-30T01:22:40;96675.85;;;18.13;82.81
79465;BME280;68932;47.410;8.232;2023-07-30T01:25:09;96668.76;;;18.12;82.65
79465;BME280;68932;47.410;8.232;2023-07-30T01:27:39;96669.18;;;18.12;82.61
79465;BME280;68932;47.410;8.232;2023-07-30T01:30:15;96672.58;;;18.12;82.56
79465;BME280;68932;47.410;8.232;2023-07-30T01:32:45;96674.77;;;18.11;82.63
79465;BME280;68932;47.410;8.232;2023-07-30T01:35:16;96673.59;;;18.10;82.65
79465;BME280;68932;47.410;8.232;2023-07-30T01:37:46;96678.05;;;18.10;82.65
79465;BME280;68932;47.410;8.232;2023-07-30T01:40:15;96682.67;;;18.10;82.86
79465;BME280;68932;47.410;8.232;2023-07-30T01:42:44;96680.55;;;18.10;82.97
79465;BME280;68932;47.410;8.232;2023-07-30T01:45:12;96680.70;;;18.10;83.10
79465;BME280;68932;47.410;8.232;2023-07-30T01:47:40;96672.95;;;18.10;83.10
79465;BME280;68932;47.410;8.232;2023-07-30T01:50:10;96670.09;;;18.10;83.16
79465;BME280;68932;47.410;8.232;2023-07-30T01:52:38;96668.63;;;18.10;83.13
79465;BME280;68932;47.410;8.232;2023-07-30T01:55:08;96673.33;;;18.09;83.04
79465;BME280;68932;47.410;8.232;2023-07-30T01:57:37;96672.67;;;18.09;83.13
79465;BME280;68932;47.410;8.232;2023-07-30T02:00:07;96671.55;;;18.08;83.09
79465;BME280;68932;47.410;8.232;2023-07-30T02:02:35;96676.61;;;18.07;83.15
79465;BME280;68932;47.410;8.232;2023-07-30T02:05:05;96674.64;;;18.05;83.22
79465;BME280;68932;47.410;8.232;2023-07-30T02:07:33;96674.67;;;18.03;83.15
79465;BME280;68932;47.410;8.232;2023-07-30T02:10:01;96683.89;;;18.01;83.19
79465;BME280;68932;47.410;8.232;2023-07-30T02:12:30;96681.92;;;18.00;83.09
79465;BME280;68932;47.410;8.232;2023-07-30T02:14:58;96675.73;;;17.98;83.07
79465;BME280;68932;47.410;8.232;2023-07-30T02:17:26;96671.77;;;17.96;83.16
79465;BME280;68932;47.410;8.232;2023-07-30T02:19:54;96669.46;;;17.95;83.07
79465;BME280;68932;47.410;8.232;2023-07-30T02:22:23;96664.49;;;17.93;83.25
79465;BME280;68932;47.410;8.232;2023-07-30T02:24:51;96663.31;;;17.91;83.17
79465;BME280;68932;47.410;8.232;2023-07-30T02:27:19;96665.92;;;17.89;83.35
79465;BME280;68932;47.410;8.232;2023-07-30T02:29:48;96670.91;;;17.89;83.50
79465;BME280;68932;47.410;8.232;2023-07-30T02:32:16;96669.77;;;17.90;83.49
79465;BME280;68932;47.410;8.232;2023-07-30T02:34:45;96670.16;;;17.91;83.62
79465;BME280;68932;47.410;8.232;2023-07-30T02:37:13;96671.30;;;17.92;83.71
79465;BME280;68932;47.410;8.232;2023-07-30T02:39:41;96681.67;;;17.93;83.69
79465;BME280;68932;47.410;8.232;2023-07-30T02:42:10;96679.79;;;17.94;83.78
79465;BME280;68932;47.410;8.232;2023-07-30T02:44:38;96681.84;;;17.95;83.86
79465;BME280;68932;47.410;8.232;2023-07-30T02:47:07;96686.88;;;17.96;83.86
79465;BME280;68932;47.410;8.232;2023-07-30T02:49:36;96688.75;;;17.97;83.92
79465;BME280;68932;47.410;8.232;2023-07-30T02:52:05;96688.05;;;17.99;83.79
79465;BME280;68932;47.410;8.232;2023-07-30T02:54:33;96686.12;;;18.01;83.98
79465;BME280;68932;47.410;8.232;2023-07-30T02:57:02;96689.52;;;18.02;83.88
79465;BME280;68932;47.410;8.232;2023-07-30T02:59:30;96690.90;;;18.04;83.81
79465;BME280;68932;47.410;8.232;2023-07-30T03:01:58;96687.20;;;18.06;83.86
79465;BME280;68932;47.410;8.232;2023-07-30T03:04:27;96689.73;;;18.07;83.82
79465;BME280;68932;47.410;8.232;2023-07-30T03:06:55;96693.44;;;18.09;83.88
79465;BME280;68932;47.410;8.232;2023-07-30T03:09:23;96695.81;;;18.10;83.80
79465;BME280;68932;47.410;8.232;2023-07-30T03:11:52;96693.55;;;18.11;83.93
79465;BME280;68932;47.410;8.232;2023-07-30T03:14:20;96688.61;;;18.13;83.72
79465;BME280;68932;47.410;8.232;2023-07-30T03:16:48;96690.05;;;18.14;83.61
79465;BME280;68932;47.410;8.232;2023-07-30T03:19:17;96690.52;;;18.17;83.74
79465;BME280;68932;47.410;8.232;2023-07-30T03:21:45;96692.27;;;18.19;83.78
79465;BME280;68932;47.410;8.232;2023-07-30T03:24:13;96687.43;;;18.19;83.71
79465;BME280;68932;47.410;8.232;2023-07-30T03:26:41;96693.55;;;18.20;83.72
79465;BME280;68932;47.410;8.232;2023-07-30T03:29:10;96693.30;;;18.21;83.73
79465;BME280;68932;47.410;8.232;2023-07-30T03:31:38;96694.46;;;18.22;83.59
79465;BME280;68932;47.410;8.232;2023-07-30T03:34:06;96693.77;;;18.21;83.56
79465;BME280;68932;47.410;8.232;2023-07-30T03:36:34;96699.55;;;18.20;83.67
79465;BME280;68932;47.410;8.232;2023-07-30T03:39:03;96696.98;;;18.19;83.72
79465;BME280;68932;47.410;8.232;2023-07-30T03:41:31;96698.47;;;18.19;83.72
79465;BME280;68932;47.410;8.232;2023-07-30T03:43:59;96692.33;;;18.16;83.64
79465;BME280;68932;47.410;8.232;2023-07-30T03:46:27;96695.08;;;18.15;83.81
79465;BME280;68932;47.410;8.232;2023-07-30T03:48:56;96700.92;;;18.14;83.84
79465;BME280;68932;47.410;8.232;2023-07-30T03:51:24;96701.20;;;18.13;83.87
79465;BME280;68932;47.410;8.232;2023-07-30T03:53:52;96702.02;;;18.13;83.95
79465;BME280;68932;47.410;8.232;2023-07-30T03:56:21;96702.89;;;18.13;83.87
79465;BME280;68932;47.410;8.232;2023-07-30T03:58:49;96702.06;;;18.14;83.95
79465;BME280;68932;47.410;8.232;2023-07-30T04:01:17;96698.54;;;18.14;83.97
79465;BME280;68932;47.410;8.232;2023-07-30T04:03:45;96697.30;;;18.14;83.96
79465;BME280;68932;47.410;8.232;2023-07-30T04:06:14;96696.67;;;18.14;83.89
79465;BME280;68932;47.410;8.232;2023-07-30T04:08:42;96697.49;;;18.12;83.91
79465;BME280;68932;47.410;8.232;2023-07-30T04:11:10;96700.41;;;18.12;83.70
79465;BME280;68932;47.410;8.232;2023-07-30T04:13:38;96698.39;;;18.11;83.79
79465;BME280;68932;47.410;8.232;2023-07-30T04:16:07;96704.02;;;18.09;83.78
79465;BME280;68932;47.410;8.232;2023-07-30T04:18:35;96703.81;;;18.10;83.82
79465;BME280;68932;47.410;8.232;2023-07-30T04:21:03;96702.12;;;18.11;83.80
79465;BME280;68932;47.410;8.232;2023-07-30T04:23:32;96709.55;;;18.11;83.67
79465;BME280;68932;47.410;8.232;2023-07-30T04:26:00;96713.91;;;18.12;83.96
79465;BME280;68932;47.410;8.232;2023-07-30T04:28:28;96714.58;;;18.12;83.96
79465;BME280;68932;47.410;8.232;2023-07-30T04:30:56;96718.45;;;18.12;83.94
79465;BME280;68932;47.410;8.232;2023-07-30T04:33:25;96727.48;;;18.14;84.11
79465;BME280;68932;47.410;8.232;2023-07-30T04:35:53;96728.69;;;18.16;84.22
79465;BME280;68932;47.410;8.232;2023-07-30T04:38:21;96732.10;;;18.20;84.34
79465;BME280;68932;47.410;8.232;2023-07-30T04:40:49;96722.64;;;18.22;84.31
79465;BME280;68932;47.410;8.232;2023-07-30T04:43:18;96722.09;;;18.24;84.21
79465;BME280;68932;47.410;8.232;2023-07-30T04:45:46;96720.42;;;18.24;84.10
79465;BME280;68932;47.410;8.232;2023-07-30T04:48:14;96721.85;;;18.24;84.12
79465;BME280;68932;47.410;8.232;2023-07-30T04:50:42;96733.06;;;18.24;84.04
79465;BME280;68932;47.410;8.232;2023-07-30T04:53:11;96736.31;;;18.25;83.95
79465;BME280;68932;47.410;8.232;2023-07-30T04:55:39;96735.02;;;18.27;84.11
79465;BME280;68932;47.410;8.232;2023-07-30T04:58:07;96737.45;;;18.28;84.03
79465;BME280;68932;47.410;8.232;2023-07-30T05:00:36;96743.46;;;18.30;83.96
79465;BME280;68932;47.410;8.232;2023-07-30T05:03:04;96745.23;;;18.31;84.01
79465;BME280;68932;47.410;8.232;2023-07-30T05:05:32;96746.98;;;18.33;84.11
79465;BME280;68932;47.410;8.232;2023-07-30T05:08:00;96743.70;;;18.36;83.93
79465;BME280;68932;47.410;8.232;2023-07-30T05:10:29;96742.31;;;18.38;83.93
79465;BME280;68932;47.410;8.232;2023-07-30T05:12:57;96740.17;;;18.40;83.88
79465;BME280;68932;47.410;8.232;2023-07-30T05:15:25;96734.68;;;18.42;83.87
79465;BME280;68932;47.410;8.232;2023-07-30T05:17:54;96742.94;;;18.42;83.90
79465;BME280;68932;47.410;8.232;2023-07-30T05:20:22;96747.30;;;18.45;83.77
79465;BME280;68932;47.410;8.232;2023-07-30T05:22:50;96752.21;;;18.49;83.87
79465;BME280;68932;47.410;8.232;2023-07-30T05:25:19;96751.69;;;18.52;83.71
79465;BME280;68932;47.410;8.232;2023-07-30T05:27:47;96754.98;;;18.55;83.87
79465;BME280;68932;47.410;8.232;2023-07-30T05:30:15;96753.59;;;18.58;83.69
79465;BME280;68932;47.410;8.232;2023-07-30T05:32:43;96752.06;;;18.61;83.57
79465;BME280;68932;47.410;8.232;2023-07-30T05:35:12;96747.79;;;18.64;83.47
79465;BME280;68932;47.410;8.232;2023-07-30T05:37:40;96750.56;;;18.67;83.35
79465;BME280;68932;47.410;8.232;2023-07-30T05:40:09;96747.14;;;18.67;83.29
79465;BME280;68932;47.410;8.232;2023-07-30T05:42:38;96742.77;;;18.66;83.25
79465;BME280;68932;47.410;8.232;2023-07-30T05:45:08;96738.85;;;18.66;83.11
79465;BME280;68932;47.410;8.232;2023-07-30T05:47:37;96736.98;;;18.66;83.00
79465;BME280;68932;47.410;8.232;2023-07-30T05:50:07;96739.02;;;18.67;83.14
79465;BME280;68932;47.410;8.232;2023-07-30T05:52:35;96741.96;;;18.71;83.04
79465;BME280;68932;47.410;8.232;2023-07-30T05:55:04;96739.89;;;18.75;83.13
79465;BME280;68932;47.410;8.232;2023-07-30T05:57:32;96745.67;;;18.80;83.33
79465;BME280;68932;47.410;8.232;2023-07-30T06:00:01;96749.76;;;18.89;83.50
79465;BME280;68932;47.410;8.232;2023-07-30T06:02:29;96753.23;;;18.94;83.36
79465;BME280;68932;47.410;8.232;2023-07-30T06:04:57;96758.41;;;18.94;83.30
79465;BME280;68932;47.410;8.232;2023-07-30T06:07:25;96760.03;;;18.92;83.22
79465;BME280;68932;47.410;8.232;2023-07-30T06:09:54;96763.55;;;18.91;83.18
79465;BME280;68932;47.410;8.232;2023-07-30T06:12:22;96767.34;;;18.97;83.33
79465;BME280;68932;47.410;8.232;2023-07-30T06:14:51;96769.45;;;19.04;83.00
79465;BME280;68932;47.410;8.232;2023-07-30T06:17:19;96765.90;;;19.09;82.83
79465;BME280;68932;47.410;8.232;2023-07-30T06:19:47;96770.98;;;19.19;82.72
79465;BME280;68932;47.410;8.232;2023-07-30T06:22:15;96789.73;;;19.32;82.76
79465;BME280;68932;47.410;8.232;2023-07-30T06:24:43;96796.29;;;19.47;82.74
79465;BME280;68932;47.410;8.232;2023-07-30T06:27:12;96798.94;;;19.56;82.22
79465;BME280;68932;47.410;8.232;2023-07-30T06:29:40;96800.80;;;19.63;81.77
79465;BME280;68932;47.410;8.232;2023-07-30T06:32:10;96804.88;;;19.77;81.95
79465;BME280;68932;47.410;8.232;2023-07-30T06:34:38;96804.17;;;19.89;81.81
79465;BME280;68932;47.410;8.232;2023-07-30T06:37:07;96806.73;;;20.00;81.40
79465;BME280;68932;47.410;8.232;2023-07-30T06:39:35;96813.10;;;20.04;80.46
79465;BME280;68932;47.410;8.232;2023-07-30T06:42:04;96813.33;;;20.02;80.44
79465;BME280;68932;47.410;8.232;2023-07-30T06:44:32;96816.13;;;20.02;80.36
79465;BME280;68932;47.410;8.232;2023-07-30T06:47:01;96812.86;;;20.06;80.53
79465;BME280;68932;47.410;8.232;2023-07-30T06:49:29;96811.27;;;20.11;80.63
79465;BME280;68932;47.410;8.232;2023-07-30T06:51:57;96811.84;;;20.17;80.59
79465;BME280;68932;47.410;8.232;2023-07-30T06:54:25;96812.36;;;20.24;80.50
79465;BME280;68932;47.410;8.232;2023-07-30T06:56:54;96813.54;;;20.29;80.08
79465;BME280;68932;47.410;8.232;2023-07-30T06:59:22;96816.91;;;20.29;79.41
79465;BME280;68932;47.410;8.232;2023-07-30T07:01:50;96818.01;;;20.28;79.23
79465;BME280;68932;47.410;8.232;2023-07-30T07:04:20;96817.45;;;20.26;79.33
79465;BME280;68932;47.410;8.232;2023-07-30T07:06:48;96823.45;;;20.25;79.15
79465;BME280;68932;47.410;8.232;2023-07-30T07:09:16;96825.19;;;20.24;79.17
79465;BME280;68932;47.410;8.232;2023-07-30T07:11:44;96824.71;;;20.21;79.11
79465;BME280;68932;47.410;8.232;2023-07-30T07:14:13;96828.30;;;20.14;78.97
79465;BME280;68932;47.410;8.232;2023-07-30T07:16:41;96827.69;;;20.09;79.26
79465;BME280;68932;47.410;8.232;2023-07-30T07:19:09;96828.46;;;20.07;79.34
79465;BME280;68932;47.410;8.232;2023-07-30T07:21:37;96826.08;;;20.04;79.40
79465;BME280;68932;47.410;8.232;2023-07-30T07:24:06;96824.52;;;20.04;79.57
79465;BME280;68932;47.410;8.232;2023-07-30T07:26:34;96827.59;;;20.08;79.69
79465;BME280;68932;47.410;8.232;2023-07-30T07:29:02;96822.86;;;20.12;79.65
79465;BME280;68932;47.410;8.232;2023-07-30T07:31:31;96822.45;;;20.16;79.40
79465;BME280;68932;47.410;8.232;2023-07-30T07:33:59;96826.56;;;20.18;78.97
79465;BME280;68932;47.410;8.232;2023-07-30T07:36:27;96829.63;;;20.15;78.31
79465;BME280;68932;47.410;8.232;2023-07-30T07:38:55;96827.53;;;20.15;78.43
79465;BME280;68932;47.410;8.232;2023-07-30T07:41:24;96827.02;;;20.26;78.72
79465;BME280;68932;47.410;8.232;2023-07-30T07:43:52;96825.29;;;20.43;78.46
79465;BME280;68932;47.410;8.232;2023-07-30T07:46:20;96829.16;;;20.53;77.51
79465;BME280;68932;47.410;8.232;2023-07-30T07:48:48;96826.52;;;20.64;76.98
79465;BME280;68932;47.410;8.232;2023-07-30T07:51:17;96823.91;;;20.72;76.65
79465;BME280;68932;47.410;8.232;2023-07-30T07:53:45;96833.13;;;20.77;76.48
79465;BME280;68932;47.410;8.232;2023-07-30T07:56:13;96823.98;;;20.86;76.07
79465;BME280;68932;47.410;8.232;2023-07-30T07:58:41;96825.11;;;21.00;76.53
79465;BME280;68932;47.410;8.232;2023-07-30T08:01:10;96814.75;;;21.15;76.16
79465;BME280;68932;47.410;8.232;2023-07-30T08:03:38;96812.44;;;21.24;75.56
79465;BME280;68932;47.410;8.232;2023-07-30T08:06:06;96817.23;;;21.31;75.44
79465;BME280;68932;47.410;8.232;2023-07-30T08:08:35;96810.20;;;21.36;75.01
79465;BME280;68932;47.410;8.232;2023-07-30T08:11:07;96803.67;;;21.44;74.78
79465;BME280;68932;47.410;8.232;2023-07-30T08:13:36;96804.02;;;21.52;74.37
79465;BME280;68932;47.410;8.232;2023-07-30T08:16:05;96804.70;;;21.63;74.31
79465;BME280;68932;47.410;8.232;2023-07-30T08:18:33;96809.61;;;21.70;73.44
79465;BME280;68932;47.410;8.232;2023-07-30T08:21:02;96810.95;;;21.75;73.38
79465;BME280;68932;47.410;8.232;2023-07-30T08:23:31;96809.10;;;21.87;73.99
79465;BME280;68932;47.410;8.232;2023-07-30T08:25:59;96813.34;;;21.99;73.79
79465;BME280;68932;47.410;8.232;2023-07-30T08:28:27;96814.53;;;22.05;73.55
79465;BME280;68932;47.410;8.232;2023-07-30T08:31:01;96813.33;;;22.06;72.26
79465;BME280;68932;47.410;8.232;2023-07-30T08:33:29;96812.88;;;22.02;71.34
79465;BME280;68932;47.410;8.232;2023-07-30T08:35:58;96809.63;;;21.93;70.51
79465;BME280;68932;47.410;8.232;2023-07-30T08:38:27;96809.27;;;21.87;70.72
79465;BME280;68932;47.410;8.232;2023-07-30T08:40:56;96814.27;;;21.82;70.43
79465;BME280;68932;47.410;8.232;2023-07-30T08:43:24;96814.79;;;21.73;70.70
79465;BME280;68932;47.410;8.232;2023-07-30T08:45:53;96817.80;;;21.64;70.85
79465;BME280;68932;47.410;8.232;2023-07-30T08:48:21;96820.23;;;21.53;70.75
79465;BME280;68932;47.410;8.232;2023-07-30T08:50:50;96816.21;;;21.45;71.03
79465;BME280;68932;47.410;8.232;2023-07-30T08:53:19;96813.19;;;21.35;70.57
79465;BME280;68932;47.410;8.232;2023-07-30T08:55:47;96813.08;;;21.28;70.96
79465;BME280;68932;47.410;8.232;2023-07-30T08:58:16;96817.32;;;21.25;70.87
79465;BME280;68932;47.410;8.232;2023-07-30T09:00:46;96817.35;;;21.27;70.81
79465;BME280;68932;47.410;8.232;2023-07-30T09:03:18;96823.70;;;21.30;71.08
79465;BME280;68932;47.410;8.232;2023-07-30T09:05:48;96824.36;;;21.40;71.60
79465;BME280;68932;47.410;8.232;2023-07-30T09:08:17;96829.53;;;21.53;71.24
79465;BME280;68932;47.410;8.232;2023-07-30T09:10:45;96832.81;;;21.67;70.89
79465;BME280;68932;47.410;8.232;2023-07-30T09:13:22;96834.98;;;21.76;70.98
79465;BME280;68932;47.410;8.232;2023-07-30T09:15:50;96839.13;;;21.82;69.99
79465;BME280;68932;47.410;8.232;2023-07-30T09:18:19;96840.01;;;21.82;69.22
79465;BME280;68932;47.410;8.232;2023-07-30T09:20:48;96839.55;;;21.80;69.09
79465;BME280;68932;47.410;8.232;2023-07-30T09:23:16;96840.94;;;21.88;69.50
79465;BME280;68932;47.410;8.232;2023-07-30T09:25:49;96844.52;;;22.02;69.37
79465;BME280;68932;47.410;8.232;2023-07-30T09:28:19;96845.05;;;22.13;69.01
79465;BME280;68932;47.410;8.232;2023-07-30T09:30:50;96842.73;;;22.14;67.50
79465;BME280;68932;47.410;8.232;2023-07-30T09:33:20;96837.88;;;22.09;66.48
79465;BME280;68932;47.410;8.232;2023-07-30T09:35:50;96839.59;;;22.08;66.33
79465;BME280;68932;47.410;8.232;2023-07-30T09:38:19;96842.02;;;22.08;67.20
79465;BME280;68932;47.410;8.232;2023-07-30T09:40:47;96839.48;;;22.15;67.41
79465;BME280;68932;47.410;8.232;2023-07-30T09:43:16;96837.56;;;22.19;65.31
79465;BME280;68932;47.410;8.232;2023-07-30T09:45:46;96833.97;;;22.22;65.78
79465;BME280;68932;47.410;8.232;2023-07-30T09:48:15;96844.00;;;22.28;64.81
79465;BME280;68932;47.410;8.232;2023-07-30T09:50:44;96842.41;;;22.31;65.02
79465;BME280;68932;47.410;8.232;2023-07-30T09:53:14;96848.14;;;22.36;63.72
79465;BME280;68932;47.410;8.232;2023-07-30T09:55:44;96840.89;;;22.32;62.90
79465;BME280;68932;47.410;8.232;2023-07-30T09:58:12;96845.57;;;22.29;62.40
79465;BME280;68932;47.410;8.232;2023-07-30T10:00:41;96843.21;;;22.27;63.30
79465;BME280;68932;47.410;8.232;2023-07-30T10:03:11;96843.45;;;22.25;63.99
79465;BME280;68932;47.410;8.232;2023-07-30T10:05:41;96846.16;;;22.16;63.72
79465;BME280;68932;47.410;8.232;2023-07-30T10:08:11;96861.23;;;22.03;64.34
79465;BME280;68932;47.410;8.232;2023-07-30T10:10:40;96859.91;;;21.93;63.80
79465;BME280;68932;47.410;8.232;2023-07-30T10:13:11;96862.55;;;21.87;64.24
79465;BME280;68932;47.410;8.232;2023-07-30T10:15:41;96864.87;;;21.86;64.48
79465;BME280;68932;47.410;8.232;2023-07-30T10:18:09;96870.64;;;21.84;63.66
79465;BME280;68932;47.410;8.232;2023-07-30T10:20:39;96871.23;;;21.83;63.62
79465;BME280;68932;47.410;8.232;2023-07-30T10:23:07;96879.59;;;21.87;63.55
79465;BME280;68932;47.410;8.232;2023-07-30T10:25:45;96880.11;;;21.90;62.53
79465;BME280;68932;47.410;8.232;2023-07-30T10:28:28;96878.30;;;21.90;62.62
79465;BME280;68932;47.410;8.232;2023-07-30T10:31:00;96868.52;;;21.87;62.88
79465;BME280;68932;47.410;8.232;2023-07-30T10:33:44;96874.65;;;21.93;62.06
79465;BME280;68932;47.410;8.232;2023-07-30T10:36:13;96877.16;;;21.98;61.46
79465;BME280;68932;47.410;8.232;2023-07-30T10:38:42;96880.84;;;22.04;61.44
79465;BME280;68932;47.410;8.232;2023-07-30T10:41:14;96874.66;;;22.08;61.14
79465;BME280;68932;47.410;8.232;2023-07-30T10:43:43;96875.45;;;22.12;60.16
79465;BME280;68932;47.410;8.232;2023-07-30T10:46:13;96872.83;;;22.07;60.58
79465;BME280;68932;47.410;8.232;2023-07-30T10:48:43;96871.09;;;22.05;61.17
79465;BME280;68932;47.410;8.232;2023-07-30T10:51:13;96872.89;;;22.05;60.18
79465;BME280;68932;47.410;8.232;2023-07-30T10:53:44;96871.16;;;22.05;59.87
79465;BME280;68932;47.410;8.232;2023-07-30T10:56:15;96872.84;;;22.10;60.21
79465;BME280;68932;47.410;8.232;2023-07-30T10:58:44;96871.13;;;22.32;60.20
79465;BME280;68932;47.410;8.232;2023-07-30T11:01:16;96872.17;;;22.50;59.43
79465;BME280;68932;47.410;8.232;2023-07-30T11:03:49;96871.16;;;22.70;59.96
79465;BME280;68932;47.410;8.232;2023-07-30T11:06:22;96864.44;;;22.84;58.50
79465;BME280;68932;47.410;8.232;2023-07-30T11:08:51;96867.43;;;23.00;58.33
79465;BME280;68932;47.410;8.232;2023-07-30T11:11:19;96868.69;;;23.11;58.01
79465;BME280;68932;47.410;8.232;2023-07-30T11:13:48;96877.27;;;23.11;56.02
79465;BME280;68932;47.410;8.232;2023-07-30T11:16:17;96867.97;;;23.05;55.63
79465;BME280;68932;47.410;8.232;2023-07-30T11:18:45;96864.90;;;23.03;55.94
79465;BME280;68932;47.410;8.232;2023-07-30T11:21:16;96857.84;;;23.09;55.08
79465;BME280;68932;47.410;8.232;2023-07-30T11:23:45;96871.30;;;23.14;54.36
79465;BME280;68932;47.410;8.232;2023-07-30T11:26:16;96864.27;;;23.21;53.68
79465;BME280;68932;47.410;8.232;2023-07-30T11:28:45;96862.12;;;23.27;53.88
79465;BME280;68932;47.410;8.232;2023-07-30T11:31:15;96861.43;;;23.39;53.84
79465;BME280;68932;47.410;8.232;2023-07-30T11:33:45;96864.21;;;23.49;54.07
79465;BME280;68932;47.410;8.232;2023-07-30T11:36:18;96869.54;;;23.58;53.33
79465;BME280;68932;47.410;8.232;2023-07-30T11:38:47;96880.11;;;23.62;53.18
79465;BME280;68932;47.410;8.232;2023-07-30T11:41:16;96871.96;;;23.73;52.71
79465;BME280;68932;47.410;8.232;2023-07-30T11:43:46;96871.77;;;23.78;52.80
79465;BME280;68932;47.410;8.232;2023-07-30T11:46:15;96871.83;;;23.86;51.96
79465;BME280;68932;47.410;8.232;2023-07-30T11:48:45;96870.59;;;23.86;50.65
79465;BME280;68932;47.410;8.232;2023-07-30T11:51:24;96868.16;;;23.84;50.96
79465;BME280;68932;47.410;8.232;2023-07-30T11:53:54;96864.88;;;23.98;52.03
79465;BME280;68932;47.410;8.232;2023-07-30T11:56:24;96865.40;;;24.04;50.15
79465;BME280;68932;47.410;8.232;2023-07-30T11:58:55;96867.04;;;23.95;49.38
79465;BME280;68932;47.410;8.232;2023-07-30T12:01:25;96866.68;;;23.90;49.49
79465;BME280;68932;47.410;8.232;2023-07-30T12:03:57;96862.35;;;23.94;49.27
79465;BME280;68932;47.410;8.232;2023-07-30T12:06:26;96862.48;;;23.98;49.34
79465;BME280;68932;47.410;8.232;2023-07-30T12:09:11;96867.11;;;24.05;48.56
79465;BME280;68932;47.410;8.232;2023-07-30T12:11:48;96869.85;;;24.10;47.49
79465;BME280;68932;47.410;8.232;2023-07-30T12:14:18;96867.21;;;24.18;46.72
79465;BME280;68932;47.410;8.232;2023-07-30T12:16:47;96865.76;;;24.28;48.50
79465;BME280;68932;47.410;8.232;2023-07-30T12:19:15;96861.05;;;24.41;48.95
79465;BME280;68932;47.410;8.232;2023-07-30T12:21:43;96862.21;;;24.51;47.86
79465;BME280;68932;47.410;8.232;2023-07-30T12:24:11;96862.33;;;24.59;46.79
79465;BME280;68932;47.410;8.232;2023-07-30T12:26:40;96865.04;;;24.65;46.65
79465;BME280;68932;47.410;8.232;2023-07-30T12:29:08;96866.73;;;24.68;45.54
79465;BME280;68932;47.410;8.232;2023-07-30T12:31:36;96862.48;;;24.69;44.66
79465;BME280;68932;47.410;8.232;2023-07-30T12:34:05;96864.88;;;24.66;44.15
79465;BME280;68932;47.410;8.232;2023-07-30T12:36:33;96865.21;;;24.66;45.38
79465;BME280;68932;47.410;8.232;2023-07-30T12:39:01;96859.64;;;24.68;44.72
79465;BME280;68932;47.410;8.232;2023-07-30T12:41:29;96857.10;;;24.65;43.97
79465;BME280;68932;47.410;8.232;2023-07-30T12:43:58;96852.85;;;24.67;44.99
79465;BME280;68932;47.410;8.232;2023-07-30T12:46:26;96854.96;;;24.66;45.44
79465;BME280;68932;47.410;8.232;2023-07-30T12:48:55;96862.48;;;24.66;44.58
79465;BME280;68932;47.410;8.232;2023-07-30T12:51:23;96856.66;;;24.71;44.83
79465;BME280;68932;47.410;8.232;2023-07-30T12:53:52;96854.86;;;24.75;43.76
79465;BME280;68932;47.410;8.232;2023-07-30T12:56:20;96849.64;;;24.77;43.73
79465;BME280;68932;47.410;8.232;2023-07-30T12:58:48;96852.30;;;24.79;42.88
79465;BME280;68932;47.410;8.232;2023-07-30T13:01:16;96854.45;;;24.79;43.16
79465;BME280;68932;47.410;8.232;2023-07-30T13:03:45;96855.65;;;24.80;42.87
79465;BME280;68932;47.410;8.232;2023-07-30T13:06:13;96852.55;;;24.79;42.58
79465;BME280;68932;47.410;8.232;2023-07-30T13:08:41;96849.04;;;24.77;42.75